createdAt,value
2022-08-06T00:00:03.085Z,74.39
2022-08-06T00:02:29.290Z,74.33
2022-08-06T00:05:01.431Z,73.74
2022-08-06T00:07:35.751Z,73.65
2022-08-06T00:10:13.610Z,73.66
2022-08-06T00:12:41.665Z,75.11
2022-08-06T00:15:13.387Z,75.17
2022-08-06T00:17:43.300Z,75.29
2022-08-06T00:20:25.516Z,76.12
2022-08-06T00:23:03.517Z,75.80
2022-08-06T00:25:35.732Z,75.49
2022-08-06T00:28:11.650Z,75.80
2022-08-06T00:30:38.659Z,75.80
2022-08-06T00:33:05.309Z,74.25
2022-08-06T00:35:32.978Z,74.34
2022-08-06T00:38:03.050Z,73.64
2022-08-06T00:40:32.599Z,70.95
2022-08-06T00:43:09.139Z,71.80
2022-08-06T00:45:37.893Z,71.27
2022-08-06T00:48:09.252Z,72.40
2022-08-06T00:50:55.853Z,73.24
2022-08-06T00:53:22.568Z,72.85
2022-08-06T00:55:59.913Z,72.39
2022-08-06T00:58:28.944Z,72.25
2022-08-06T01:01:16.441Z,71.68
2022-08-06T01:03:51.522Z,72.16
2022-08-06T01:06:55.867Z,72.03
2022-08-06T01:09:10.173Z,72.45
2022-08-06T01:11:39.554Z,73.30
2022-08-06T01:14:10.145Z,73.45
2022-08-06T01:16:58.523Z,73.64
2022-08-06T01:21:36.682Z,71.93
2022-08-06T01:23:10.772Z,70.48
2022-08-06T01:26:18.740Z,70.25
2022-08-06T01:28:54.362Z,72.45
2022-08-06T01:31:35.843Z,71.05
2022-08-06T01:34:13.982Z,72.02
2022-08-06T01:36:48.986Z,71.39
2022-08-06T01:39:22.977Z,70.93
2022-08-06T01:42:11.604Z,71.25
2022-08-06T01:44:48.237Z,71.15
2022-08-06T01:47:22.034Z,70.82
2022-08-06T01:50:03.762Z,70.53
2022-08-06T01:52:38.395Z,69.53
2022-08-06T01:55:16.123Z,69.98
2022-08-06T01:58:19.560Z,70.51
2022-08-06T02:00:46.400Z,71.23
2022-08-06T02:03:39.049Z,71.27
2022-08-06T02:06:31.308Z,70.79
2022-08-06T02:09:16.258Z,70.69
2022-08-06T02:12:08.392Z,71.18
2022-08-06T02:14:43.747Z,70.44
2022-08-06T02:17:15.365Z,71.00
2022-08-06T02:20:05.018Z,71.89
2022-08-06T02:22:42.557Z,72.71
2022-08-06T02:25:22.538Z,72.37
2022-08-06T02:28:02.133Z,70.84
2022-08-06T02:30:42.545Z,71.24
2022-08-06T02:33:18.320Z,72.28
2022-08-06T02:36:26.915Z,72.57
2022-08-06T02:39:04.729Z,72.25
2022-08-06T02:42:08.558Z,71.95
2022-08-06T02:45:04.740Z,72.07
2022-08-06T02:48:02.418Z,72.44
2022-08-06T02:50:40.680Z,72.69
2022-08-06T02:53:23.891Z,72.97
2022-08-06T02:56:06.510Z,73.00
2022-08-06T02:58:57.321Z,72.94
2022-08-06T03:01:43.748Z,72.63
2022-08-06T03:04:14.466Z,73.37
2022-08-06T03:06:47.765Z,72.33
2022-08-06T03:09:20.090Z,72.18
2022-08-06T03:11:49.513Z,71.93
2022-08-06T03:15:03.574Z,71.92
2022-08-06T03:17:08.918Z,71.90
2022-08-06T03:19:54.410Z,71.86
2022-08-06T03:22:35.389Z,71.32
2022-08-06T03:25:14.118Z,72.18
2022-08-06T03:27:45.391Z,71.90
2022-08-06T03:30:30.510Z,72.29
2022-08-06T03:33:42.014Z,72.09
2022-08-06T03:36:04.940Z,71.86
2022-08-06T03:38:44.097Z,72.36
2022-08-06T03:41:18.117Z,71.34
2022-08-06T03:43:56.724Z,72.08
2022-08-06T03:47:04.836Z,72.07
2022-08-06T03:49:43.991Z,72.81
2022-08-06T03:52:22.782Z,73.18
2022-08-06T03:55:04.265Z,73.51
2022-08-06T03:57:50.160Z,72.87
2022-08-06T04:00:28.138Z,73.23
2022-08-06T04:03:03.095Z,72.99
2022-08-06T04:05:33.847Z,73.55
2022-08-06T04:08:08.592Z,73.28
2022-08-06T04:10:42.905Z,73.63
2022-08-06T04:14:06.247Z,73.44
2022-08-06T04:16:14.892Z,74.11
2022-08-06T04:18:49.748Z,74.37
2022-08-06T04:22:59.712Z,73.79
2022-08-06T04:24:09.917Z,73.43
2022-08-06T04:26:40.917Z,73.69
2022-08-06T04:29:13.499Z,73.52
2022-08-06T04:32:13.002Z,73.00
2022-08-06T04:36:03.311Z,73.33
2022-08-06T04:37:26.939Z,73.05
2022-08-06T04:39:59.069Z,72.51
2022-08-06T04:42:27.283Z,73.15
2022-08-06T04:45:00.111Z,72.82
2022-08-06T04:47:41.722Z,73.18
2022-08-06T04:50:11.782Z,72.70
2022-08-06T04:52:48.183Z,72.44
2022-08-06T04:55:24.201Z,72.27
2022-08-06T04:57:57.297Z,73.06
2022-08-06T05:01:03.820Z,72.90
2022-08-06T05:04:07.622Z,72.99
2022-08-06T05:06:23.565Z,72.64
2022-08-06T05:09:02.331Z,73.85
2022-08-06T05:11:58.386Z,74.81
2022-08-06T05:14:39.888Z,74.39
2022-08-06T05:17:14.422Z,74.42
2022-08-06T05:20:00.239Z,75.10
2022-08-06T05:22:53.604Z,73.58
2022-08-06T05:25:22.610Z,73.27
2022-08-06T05:28:10.578Z,72.46
2022-08-06T05:30:48.387Z,72.66
2022-08-06T05:33:37.442Z,71.33
2022-08-06T05:36:11.956Z,70.63
2022-08-06T05:38:58.834Z,69.00
2022-08-06T05:41:30.601Z,71.44
2022-08-06T05:44:02.416Z,71.68
2022-08-06T05:47:12.277Z,65.55
2022-08-06T05:50:01.015Z,69.70
2022-08-06T05:52:38.290Z,68.79
2022-08-06T05:55:16.859Z,70.24
2022-08-06T05:57:54.008Z,68.66
2022-08-06T06:00:32.420Z,68.27
2022-08-06T06:03:24.558Z,69.73
2022-08-06T06:06:04.586Z,70.19
2022-08-06T06:08:38.770Z,68.43
2022-08-06T06:11:10.088Z,67.84
2022-08-06T06:13:59.603Z,64.33
2022-08-06T06:16:42.147Z,61.24
2022-08-06T06:19:39.333Z,66.98
2022-08-06T06:22:17.347Z,67.50
2022-08-06T06:24:55.184Z,63.28
2022-08-06T06:27:50.773Z,66.99
2022-08-06T06:30:40.062Z,61.21
2022-08-06T06:33:51.485Z,59.10
2022-08-06T06:36:33.379Z,64.07
2022-08-06T06:39:14.989Z,62.54
2022-08-06T06:41:55.930Z,65.18
2022-08-06T06:45:04.572Z,65.15
2022-08-06T06:47:37.073Z,63.55
2022-08-06T06:50:17.101Z,61.46
2022-08-06T06:52:49.793Z,57.32
2022-08-06T06:55:55.418Z,56.70
2022-08-06T06:58:47.569Z,58.54
2022-08-06T07:01:27.882Z,58.67
2022-08-06T07:03:57.794Z,59.54
2022-08-06T07:06:32.264Z,59.87
2022-08-06T07:09:39.473Z,54.14
2022-08-06T07:12:19.844Z,54.87
2022-08-06T07:15:00.596Z,56.00
2022-08-06T07:17:46.127Z,52.98
2022-08-06T07:20:25.968Z,56.59
2022-08-06T07:24:03.977Z,53.71
2022-08-06T07:25:54.139Z,54.12
2022-08-06T07:28:28.255Z,53.31
2022-08-06T07:31:04.227Z,53.45
2022-08-06T07:34:01.292Z,57.11
2022-08-06T07:36:27.401Z,57.00
2022-08-06T07:39:03.308Z,54.50
2022-08-06T07:42:08.013Z,54.27
2022-08-06T07:44:29.159Z,50.34
2022-08-06T07:47:23.420Z,46.38
2022-08-06T07:50:00.130Z,51.00
2022-08-06T07:52:29.754Z,47.94
2022-08-06T07:55:00.434Z,53.41
2022-08-06T07:57:32.679Z,53.63
2022-08-06T08:00:16.787Z,54.67
2022-08-06T08:03:05.447Z,49.76
2022-08-06T08:06:00.150Z,49.74
2022-08-06T08:08:30.639Z,48.12
2022-08-06T08:10:58.505Z,49.93
2022-08-06T08:13:41.435Z,48.76
2022-08-06T08:16:13.103Z,49.57
2022-08-06T08:18:47.240Z,47.50
2022-08-06T08:21:16.204Z,53.71
2022-08-06T08:23:46.784Z,49.37
2022-08-06T08:26:13.907Z,49.69
2022-08-06T08:28:41.009Z,46.46
2022-08-06T08:31:21.006Z,52.52
2022-08-06T08:33:53.826Z,44.00
2022-08-06T08:36:30.610Z,44.45
2022-08-06T08:38:58.796Z,49.79
2022-08-06T08:41:48.435Z,45.84
2022-08-06T08:44:26.829Z,47.25
2022-08-06T08:46:59.379Z,49.63
2022-08-06T08:49:48.454Z,48.58
2022-08-06T08:52:32.198Z,45.93
2022-08-06T08:57:08.193Z,43.08
2022-08-06T08:58:40.018Z,44.43
2022-08-06T09:00:41.767Z,44.02
2022-08-06T09:03:20.044Z,49.09
2022-08-06T09:05:47.803Z,47.10
2022-08-06T09:08:18.983Z,44.25
2022-08-06T09:11:07.093Z,47.11
2022-08-06T09:13:51.374Z,41.97
2022-08-06T09:16:31.448Z,42.75
2022-08-06T09:18:59.790Z,43.36
2022-08-06T09:21:28.552Z,44.73
2022-08-06T09:23:59.349Z,45.85
2022-08-06T09:26:39.957Z,43.67
2022-08-06T09:29:31.837Z,44.27
2022-08-06T09:32:15.517Z,41.54
2022-08-06T09:34:46.673Z,42.23
2022-08-06T09:37:44.406Z,42.92
2022-08-06T09:40:20.810Z,41.77
2022-08-06T09:42:54.726Z,41.69
2022-08-06T09:45:43.023Z,41.20
2022-08-06T09:48:17.275Z,39.23
2022-08-06T09:50:47.751Z,43.32
2022-08-06T09:53:21.602Z,47.13
2022-08-06T09:55:57.783Z,39.90
2022-08-06T09:58:37.424Z,44.69
2022-08-06T10:01:22.857Z,43.79
2022-08-06T10:04:04.135Z,43.40
2022-08-06T10:06:51.999Z,42.53
2022-08-06T10:09:41.363Z,39.01
2022-08-06T10:12:26.148Z,42.31
2022-08-06T10:14:56.312Z,41.50
2022-08-06T10:17:25.387Z,39.98
2022-08-06T10:20:19.154Z,39.90
2022-08-06T10:22:58.335Z,41.69
2022-08-06T10:25:29.508Z,44.39
2022-08-06T10:27:59.939Z,39.13
2022-08-06T10:30:33.434Z,43.36
2022-08-06T10:33:22.320Z,37.88
2022-08-06T10:35:55.484Z,37.18
2022-08-06T10:38:34.452Z,37.30
2022-08-06T10:41:13.551Z,38.06
2022-08-06T10:44:16.075Z,36.99
2022-08-06T10:46:53.687Z,35.52
2022-08-06T10:50:23.830Z,38.50
2022-08-06T10:52:16.567Z,37.83
2022-08-06T10:54:44.978Z,38.35
2022-08-06T10:57:23.184Z,36.86
2022-08-06T11:00:06.710Z,36.43
2022-08-06T11:03:01.652Z,36.34
2022-08-06T11:05:53.784Z,36.83
2022-08-06T11:08:59.663Z,38.46
2022-08-06T11:12:14.596Z,36.93
2022-08-06T11:14:44.841Z,36.08
2022-08-06T11:17:13.472Z,36.89
2022-08-06T11:19:46.611Z,35.89
2022-08-06T11:22:39.167Z,36.28
2022-08-06T11:25:14.345Z,33.09
2022-08-06T11:28:05.327Z,34.02
2022-08-06T11:30:39.962Z,36.32
2022-08-06T11:33:11.715Z,36.00
2022-08-06T11:35:51.529Z,34.75
2022-08-06T11:38:48.677Z,33.25
2022-08-06T11:41:54.872Z,33.46
2022-08-06T11:44:18.511Z,34.10
2022-08-06T11:46:50.603Z,33.97
2022-08-06T11:49:43.020Z,30.39
2022-08-06T11:52:39.397Z,31.39
2022-08-06T11:55:23.266Z,32.16
2022-08-06T11:58:21.217Z,30.87
2022-08-06T12:01:33.520Z,34.83
2022-08-06T12:03:52.186Z,35.94
2022-08-06T12:06:29.393Z,31.28
2022-08-06T12:09:23.887Z,32.63
2022-08-06T12:12:30.089Z,33.10
2022-08-06T12:15:06.379Z,36.15
2022-08-06T12:17:45.323Z,33.27
2022-08-06T12:20:46.351Z,32.75
2022-08-06T12:23:53.856Z,34.30
2022-08-06T12:26:11.219Z,32.52
2022-08-06T12:28:38.543Z,34.73
2022-08-06T12:31:35.106Z,30.67
2022-08-06T12:33:52.709Z,29.44
2022-08-06T12:36:32.606Z,30.89
2022-08-06T12:39:10.730Z,32.37
2022-08-06T12:41:47.535Z,31.16
2022-08-06T12:44:20.330Z,34.08
2022-08-06T12:47:14.540Z,32.33
2022-08-06T12:49:44.236Z,32.51
2022-08-06T12:52:18.472Z,35.64
2022-08-06T12:54:46.276Z,34.22
2022-08-06T12:57:59.956Z,31.40
2022-08-06T13:00:18.929Z,30.55
2022-08-06T13:02:57.905Z,31.54
2022-08-06T13:05:31.329Z,30.87
2022-08-06T13:08:05.685Z,28.75
2022-08-06T13:10:34.085Z,30.44
2022-08-06T13:14:13.955Z,30.67
2022-08-06T13:16:12.001Z,30.23
2022-08-06T13:19:19.476Z,35.29
2022-08-06T13:21:58.971Z,33.38
2022-08-06T13:24:31.022Z,26.18
2022-08-06T13:27:02.937Z,25.77
2022-08-06T13:30:33.808Z,27.96
2022-08-06T13:32:33.521Z,21.87
2022-08-06T13:35:18.252Z,19.63
2022-08-06T13:37:55.910Z,20.22
2022-08-06T13:40:51.912Z,21.29
2022-08-06T13:43:50.722Z,22.43
2022-08-06T13:46:28.056Z,23.58
2022-08-06T13:49:01.965Z,25.21
2022-08-06T13:51:34.311Z,25.05
2022-08-06T13:54:14.016Z,25.35
2022-08-06T13:56:44.225Z,24.87
2022-08-06T13:59:17.483Z,28.76
2022-08-06T14:01:47.215Z,27.83
2022-08-06T14:04:19.130Z,24.83
2022-08-06T14:06:48.742Z,21.74
2022-08-06T14:09:20.865Z,21.51
2022-08-06T14:11:58.478Z,20.75
2022-08-06T14:14:27.902Z,21.66
2022-08-06T14:17:00.340Z,19.39
2022-08-06T14:20:15.860Z,21.81
2022-08-06T14:22:18.180Z,21.19
2022-08-06T14:24:53.048Z,17.82
2022-08-06T14:27:24.268Z,22.13
2022-08-06T14:30:28.500Z,22.16
2022-08-06T14:32:40.283Z,22.77
2022-08-06T14:35:08.662Z,23.02
2022-08-06T14:37:50.074Z,22.82
2022-08-06T14:40:59.464Z,23.20
2022-08-06T14:43:55.151Z,19.66
2022-08-06T14:46:31.743Z,21.22
2022-08-06T14:49:09.017Z,22.70
2022-08-06T14:52:19.441Z,21.93
2022-08-06T14:54:32.025Z,26.39
2022-08-06T14:57:14.950Z,23.33
2022-08-06T14:59:49.111Z,23.32
2022-08-06T15:02:25.016Z,21.71
2022-08-06T15:04:54.116Z,22.12
2022-08-06T15:07:35.629Z,24.89
2022-08-06T15:10:27.591Z,26.61
2022-08-06T15:13:01.031Z,27.83
2022-08-06T15:15:46.655Z,25.46
2022-08-06T15:18:40.623Z,27.41
2022-08-06T15:21:05.911Z,27.31
2022-08-06T15:23:53.759Z,26.04
2022-08-06T15:26:46.704Z,25.19
2022-08-06T15:29:15.162Z,23.99
2022-08-06T15:31:46.691Z,26.95
2022-08-06T15:34:20.033Z,27.08
2022-08-06T15:37:01.623Z,27.56
2022-08-06T15:39:52.822Z,26.74
2022-08-06T15:42:28.462Z,28.48
2022-08-06T15:44:55.984Z,29.00
2022-08-06T15:47:32.095Z,28.20
2022-08-06T15:50:32.695Z,26.25
2022-08-06T15:53:22.861Z,25.98
2022-08-06T15:55:58.618Z,27.88
2022-08-06T15:58:28.821Z,26.95
2022-08-06T16:01:04.157Z,31.15
2022-08-06T16:03:56.439Z,27.80
2022-08-06T16:06:25.438Z,28.81
2022-08-06T16:08:54.231Z,25.95
2022-08-06T16:11:27.146Z,31.60
2022-08-06T16:14:13.818Z,26.48
2022-08-06T16:16:46.581Z,30.42
2022-08-06T16:19:21.535Z,26.69
2022-08-06T16:21:49.387Z,32.79
2022-08-06T16:24:16.362Z,27.26
2022-08-06T16:26:50.443Z,30.32
2022-08-06T16:29:25.199Z,31.65
2022-08-06T16:31:54.927Z,26.31
2022-08-06T16:34:29.816Z,25.54
2022-08-06T16:37:00.657Z,29.02
2022-08-06T16:39:35.140Z,26.63
2022-08-06T16:42:10.117Z,22.93
2022-08-06T16:48:04.305Z,22.16
2022-08-06T16:50:19.154Z,22.58
2022-08-06T16:54:08.323Z,25.70
2022-08-06T16:55:42.479Z,27.78
2022-08-06T17:03:46.033Z,25.76
2022-08-06T17:06:17.753Z,26.46
2022-08-06T17:08:54.235Z,27.25
2022-08-06T17:11:46.015Z,25.57
2022-08-06T17:14:13.181Z,28.61
2022-08-06T17:16:41.996Z,28.93
2022-08-06T17:19:17.543Z,25.53
2022-08-06T17:24:38.168Z,22.79
2022-08-06T17:27:15.057Z,26.26
2022-08-06T17:32:36.929Z,29.54
2022-08-06T17:35:16.355Z,30.26
2022-08-06T17:37:50.351Z,28.91
2022-08-06T17:40:30.924Z,31.56
2022-08-06T17:43:12.934Z,28.78
2022-08-06T17:46:00.213Z,28.87
2022-08-06T17:48:32.314Z,31.37
2022-08-06T17:51:09.624Z,30.60
2022-08-06T17:53:52.287Z,31.38
2022-08-06T17:56:30.368Z,30.81
2022-08-06T17:59:16.453Z,30.85
2022-08-06T18:01:49.982Z,30.66
2022-08-06T18:04:31.068Z,31.94
2022-08-06T18:07:11.624Z,32.13
2022-08-06T18:10:10.078Z,30.31
2022-08-06T18:12:30.182Z,30.67
2022-08-06T18:14:59.302Z,32.63
2022-08-06T18:17:59.192Z,31.95
2022-08-06T18:20:16.418Z,32.03
2022-08-06T18:22:55.159Z,32.60
2022-08-06T18:25:29.781Z,34.10
2022-08-06T18:28:17.244Z,32.09
2022-08-06T18:31:04.619Z,33.53
2022-08-06T18:33:32.425Z,34.08
2022-08-06T18:35:59.574Z,33.75
2022-08-06T18:38:31.337Z,35.14
2022-08-06T18:41:06.344Z,34.24
2022-08-06T18:43:58.134Z,33.70
2022-08-06T18:47:02.116Z,36.17
2022-08-06T18:49:27.201Z,33.98
2022-08-06T18:52:00.927Z,33.45
2022-08-06T18:54:27.945Z,35.61
2022-08-06T18:56:56.852Z,33.41
2022-08-06T18:59:28.878Z,37.64
2022-08-06T19:01:58.807Z,35.02
2022-08-06T19:04:29.934Z,36.96
2022-08-06T19:07:03.753Z,36.29
2022-08-06T19:09:39.550Z,36.63
2022-08-06T19:12:13.822Z,37.74
2022-08-06T19:14:49.979Z,35.90
2022-08-06T19:17:22.575Z,37.56
2022-08-06T19:20:19.421Z,37.29
2022-08-06T19:22:53.335Z,38.31
2022-08-06T19:25:22.566Z,37.84
2022-08-06T19:28:30.526Z,37.32
2022-08-06T19:30:45.747Z,38.55
2022-08-06T19:33:15.590Z,37.16
2022-08-06T19:36:03.500Z,38.73
2022-08-06T19:38:34.031Z,36.66
2022-08-06T19:41:02.421Z,36.94
2022-08-06T19:44:26.182Z,36.97
2022-08-06T19:46:30.786Z,37.60
2022-08-06T19:49:03.455Z,39.92
2022-08-06T19:52:03.950Z,41.60
2022-08-06T19:54:25.050Z,41.69
2022-08-06T19:56:52.911Z,42.78
2022-08-06T20:00:53.290Z,41.80
2022-08-06T20:02:15.228Z,41.39
2022-08-06T20:04:42.851Z,42.17
2022-08-06T20:07:24.025Z,42.76
2022-08-06T20:10:01.957Z,43.31
2022-08-06T20:12:39.076Z,42.70
2022-08-06T20:15:27.268Z,42.36
2022-08-06T20:17:55.909Z,41.03
2022-08-06T20:20:28.192Z,44.05
2022-08-06T20:22:58.193Z,44.91
2022-08-06T20:25:26.504Z,43.55
2022-08-06T20:29:09.789Z,42.44
2022-08-06T20:30:49.556Z,42.00
2022-08-06T20:33:24.632Z,43.94
2022-08-06T20:35:57.881Z,42.72
2022-08-06T20:38:39.980Z,42.48
2022-08-06T20:41:57.159Z,43.20
2022-08-06T20:44:08.515Z,42.01
2022-08-06T20:49:29.617Z,41.82
2022-08-06T20:52:17.812Z,42.29
2022-08-06T20:54:51.991Z,42.46
2022-08-06T20:57:27.281Z,40.91
2022-08-06T20:59:59.490Z,43.12
2022-08-06T21:02:32.930Z,43.06
2022-08-06T21:05:12.874Z,41.61
2022-08-06T21:07:56.634Z,41.89
2022-08-06T21:10:31.579Z,42.05
2022-08-06T21:13:08.121Z,42.01
2022-08-06T21:15:54.658Z,43.60
2022-08-06T21:18:26.468Z,42.78
2022-08-06T21:20:56.036Z,43.29
2022-08-06T21:23:41.565Z,42.50
2022-08-06T21:26:15.949Z,41.12
2022-08-06T21:28:54.088Z,41.53
2022-08-06T21:31:27.340Z,42.26
2022-08-06T21:33:57.091Z,41.65
2022-08-06T21:36:25.949Z,42.26
2022-08-06T21:38:57.314Z,42.70
2022-08-06T21:41:56.024Z,43.56
2022-08-06T21:44:27.691Z,43.49
2022-08-06T21:46:58.964Z,41.42
2022-08-06T21:50:04.198Z,41.19
2022-08-06T21:52:27.641Z,43.84
2022-08-06T21:54:57.746Z,42.28
2022-08-06T21:57:25.399Z,44.00
2022-08-06T21:59:53.253Z,42.13
2022-08-06T22:02:26.406Z,42.95
2022-08-06T22:05:00.331Z,42.37
2022-08-06T22:08:06.717Z,43.13
2022-08-06T22:10:28.928Z,44.35
2022-08-06T22:13:12.260Z,44.97
2022-08-06T22:15:45.967Z,43.36
2022-08-06T22:18:17.049Z,45.43
2022-08-06T22:20:46.009Z,45.23
2022-08-06T22:23:17.652Z,45.41
2022-08-06T22:25:50.745Z,44.58
2022-08-06T22:28:23.899Z,46.72
2022-08-06T22:31:05.471Z,43.23
2022-08-06T22:33:45.368Z,47.01
2022-08-06T22:36:34.538Z,45.02
2022-08-06T22:39:05.197Z,46.75
2022-08-06T22:41:42.721Z,45.50
2022-08-06T22:44:34.230Z,44.86
2022-08-06T22:47:06.662Z,46.00
2022-08-06T22:50:00.326Z,46.08
2022-08-06T22:52:51.258Z,47.56
2022-08-06T22:55:18.082Z,46.23
2022-08-06T22:58:48.506Z,46.66
2022-08-06T23:00:36.752Z,47.33
2022-08-06T23:03:13.393Z,47.21
2022-08-06T23:05:46.870Z,46.44
2022-08-06T23:08:17.307Z,47.08
2022-08-06T23:10:48.315Z,46.82
2022-08-06T23:13:25.153Z,47.19
2022-08-06T23:15:52.203Z,46.95
2022-08-06T23:18:22.535Z,47.60
2022-08-06T23:21:22.064Z,48.37
2022-08-06T23:23:53.755Z,47.65
2022-08-06T23:26:31.078Z,47.49
2022-08-06T23:29:04.301Z,47.16
2022-08-06T23:31:37.932Z,47.98
2022-08-06T23:34:34.218Z,48.41
2022-08-06T23:36:57.453Z,48.97
2022-08-06T23:39:28.828Z,48.31
2022-08-06T23:42:22.146Z,49.31
2022-08-06T23:44:51.911Z,49.87
2022-08-06T23:47:54.583Z,50.12
2022-08-06T23:50:09.619Z,49.24
2022-08-06T23:52:41.804Z,49.18
2022-08-06T23:55:25.832Z,49.92
2022-08-06T23:57:57.615Z,49.33
